Peotone Weather

Nearby METAR Reports

 

KIGQ - Lansing, Illinois, USA
Distance from station: NE 19mi, 30km
Updated: Wed, 25-Apr-2018 8:15pm CDT
Clear
Clear
 Wind from NNE
Wind: NNE 5 mph , 7 km/h
Temperature: 39°F , 4°C
Wind Chill: 35°F , 2°C
Dew Point: 34°F , 1°C
Humidity: 81%
Barometer: 30.04 inHg , 1017.3 hPa
Clouds: Clear
Visibility: 10 miles , 16 km
2018/04/26 01:15 KIGQ 260115Z AUTO 03004KT 10SM CLR 04/01 A3004 RMK AO2 T00400011
KIKK - Kankakee, Illinois, USA
Distance from station: S 19mi, 30km
Updated: Wed, 25-Apr-2018 8:15pm CDT
Clear
Clear
 Wind from NE
Wind: NE 13 mph , 20 km/h
Temperature: 45°F , 7°C
Wind Chill: 39°F , 4°C
Dew Point: 32°F , 0°C
Humidity: 61%
Barometer: 30.04 inHg , 1017.3 hPa
Clouds: Clear
Visibility: 10 miles , 16 km
2018/04/26 01:15 KIKK 260115Z AUTO 05011KT 10SM CLR 07/00 A3004 RMK AO2 T00651005
 
KSJC - Joliet, Illinois, USA
Distance from station: WNW 24mi, 38km
Updated: Wed, 25-Apr-2018 7:53pm CDT
Clear
Clear
 Wind from WNW
Wind: WNW 14 mph , 22 km/h
Temperature: 66°F , 19°C
Dew Point: 52°F , 11°C
Humidity: 60%
Barometer: 30.01 inHg , 1016.3 hPa
Clouds: Clear
Visibility: 9 miles , 14 km
2018/04/26 00:53 KSJC 260053Z 29012KT 9SM CLR 19/11 A3001 RMK AO2 SLP161 T01890111
KLOT - Romeoville, Illinois, USA
Distance from station: NW 26mi, 41km
Updated: Wed, 25-Apr-2018 8:15pm CDT
Clear
Clear
 Wind from E
Wind: E 9 mph , 15 km/h
Temperature: 43°F , 6°C
Wind Chill: 38°F , 3°C
Dew Point: 30°F , -1°C
Humidity: 61%
Barometer: 30.04 inHg , 1017.3 hPa
Clouds: Clear
Visibility: 10 miles , 16 km
2018/04/26 01:15 KLOT 260115Z AUTO 08008KT 10SM CLR 06/M01 A3004 RMK AO2 T00611010
 
KMDW - Midway Airport Chicago, Illinois, USA
Distance from station: N 31mi, 50km
Updated: Wed, 25-Apr-2018 7:53pm CDT
Partly cloudy
Partly cloudy
 Wind from NE
Wind: NE 10 mph , 17 km/h
Temperature: 43°F , 6°C
Wind Chill: 37°F , 3°C
Dew Point: 30°F , -1°C
Humidity: 61%
Barometer: 30.04 inHg , 1017.3 hPa
Clouds: Partly cloudy
Visibility: 10 miles , 16 km
Cloud details: Partly cloudy 25000 ft
2018/04/26 00:53 KMDW 260053Z 05009KT 10SM SCT250 06/M01 A3004 RMK AO2 SLP178 T00611006
KC09 - Morris, Illinois, USA
Distance from station: W 34mi, 54km
Updated: Wed, 25-Apr-2018 8:15pm CDT
Clear
Clear
 Wind from E
Wind: E 8 mph , 13 km/h
Temperature: 46°F , 8°C
Wind Chill: 42°F , 6°C
Dew Point: 32°F , 0°C
Humidity: 57%
Barometer: 30.02 inHg , 1016.6 hPa
Clouds: Clear
Visibility: 10 miles , 16 km
2018/04/26 01:15 KC09 260115Z AUTO 09007KT 10SM CLR 08/00 A3002 RMK AO2 T00771001

Metar display script from Saratoga-Weather.org